Time;durP1;ratioP1;P1;durP2;ratioP2;P2;SDS_P1;SDS_P2;PMS_P1;PMS_P2;Temp;Humidity;BMP_temperature;BMP_pressure;BME280_temperature;BME280_humidity;BME280_pressure;Samples;Min_cycle;Max_cycle;Signal;HPM_P1;HPM_P2
2022/10/30 00:00:51;;;;;;;10.23;8.70;;;16.20;99.90;;;;;;5027559;28;20209;-89
2022/10/30 00:03:17;;;;;;;14.35;9.00;;;16.20;99.90;;;;;;5033921;28;20203;-89
2022/10/30 00:05:48;;;;;;;11.27;8.57;;;16.20;99.90;;;;;;5042394;28;20873;-88
2022/10/30 00:08:16;;;;;;;10.32;8.68;;;16.20;99.90;;;;;;5035097;28;20308;-88
2022/10/30 00:10:42;;;;;;;13.70;8.35;;;16.20;99.90;;;;;;5037667;28;20188;-89
2022/10/30 00:13:08;;;;;;;9.68;8.75;;;16.20;99.90;;;;;;5045296;28;20216;-88
2022/10/30 00:15:35;;;;;;;9.38;8.50;;;16.20;99.90;;;;;;5034451;28;20204;-88
2022/10/30 00:18:01;;;;;;;11.50;8.80;;;16.20;99.90;;;;;;5037531;28;20216;-88
2022/10/30 00:20:27;;;;;;;9.20;8.30;;;16.10;99.90;;;;;;5028109;28;20201;-88
2022/10/30 00:22:53;;;;;;;11.10;8.98;;;16.00;99.90;;;;;;5034819;28;20271;-88
2022/10/30 00:25:19;;;;;;;9.80;7.93;;;16.10;99.90;;;;;;5031000;28;20185;-88
2022/10/30 00:27:44;;;;;;;9.88;7.95;;;16.10;99.90;;;;;;5037047;28;20186;-88
2022/10/30 00:30:11;;;;;;;9.68;8.63;;;16.20;99.90;;;;;;5039325;28;20184;-88
2022/10/30 00:32:36;;;;;;;10.38;8.18;;;16.10;99.90;;;;;;5031392;28;20189;-88
2022/10/30 00:35:02;;;;;;;8.63;7.75;;;16.10;99.90;;;;;;5015880;28;20188;-89
2022/10/30 00:37:28;;;;;;;9.63;8.55;;;16.10;99.90;;;;;;5039155;28;20206;-88
2022/10/30 00:39:54;;;;;;;7.88;7.07;;;16.00;99.90;;;;;;5045087;28;20650;-89
2022/10/30 00:42:19;;;;;;;9.57;8.13;;;16.00;99.90;;;;;;5047333;28;20208;-88
2022/10/30 00:44:48;;;;;;;9.27;7.75;;;16.10;99.90;;;;;;5034097;28;20193;-88
2022/10/30 00:47:34;;;;;;;10.80;8.00;;;16.10;99.90;;;;;;5029539;28;20178;-88
2022/10/30 00:50:24;;;;;;;9.77;7.78;;;16.10;99.90;;;;;;5033534;28;20269;-89
2022/10/30 00:52:59;;;;;;;9.55;7.80;;;16.00;99.90;;;;;;5026127;28;20323;-88
2022/10/30 00:55:42;;;;;;;11.85;8.15;;;15.90;99.90;;;;;;5040771;28;20717;-88
2022/10/30 00:58:12;;;;;;;10.05;8.75;;;15.90;99.90;;;;;;5037698;28;20218;-88
2022/10/30 01:00:42;;;;;;;10.70;8.55;;;15.80;99.90;;;;;;5040348;28;20213;-88
2022/10/30 01:03:08;;;;;;;9.23;7.88;;;15.90;99.90;;;;;;5036413;28;20179;-88
2022/10/30 01:05:35;;;;;;;9.70;7.93;;;15.90;99.90;;;;;;5035545;28;20191;-88
2022/10/30 01:08:00;;;;;;;12.90;8.52;;;15.90;99.90;;;;;;5038565;28;21923;-88
2022/10/30 01:10:26;;;;;;;10.18;9.18;;;15.90;99.90;;;;;;5034890;28;20186;-88
2022/10/30 01:12:53;;;;;;;13.75;8.10;;;15.90;99.90;;;;;;5040494;28;20231;-88
2022/10/30 01:15:25;;;;;;;10.40;8.73;;;15.80;99.90;;;;;;5033871;28;20217;-88
2022/10/30 01:18:07;;;;;;;13.05;8.30;;;15.80;99.90;;;;;;5027180;28;20223;-88
2022/10/30 01:20:42;;;;;;;14.23;8.38;;;15.90;99.90;;;;;;5035979;28;20444;-88
2022/10/30 01:23:32;;;;;;;9.80;7.82;;;15.90;99.90;;;;;;5040246;28;20190;-88
2022/10/30 01:26:09;;;;;;;10.45;8.52;;;15.90;99.90;;;;;;5029951;28;20184;-88
2022/10/30 01:29:13;;;;;;;8.52;7.72;;;15.90;99.90;;;;;;5031860;28;20200;-87
2022/10/30 01:32:40;;;;;;;8.98;8.15;;;15.90;99.90;;;;;;5032554;28;20195;-88
2022/10/30 01:35:14;;;;;;;8.35;7.53;;;15.90;99.90;;;;;;5005050;28;20292;-88
2022/10/30 01:37:47;;;;;;;12.43;8.25;;;15.90;99.90;;;;;;5046507;28;20185;-88
2022/10/30 01:40:16;;;;;;;9.40;8.40;;;15.80;99.90;;;;;;5034342;28;20208;-88
2022/10/30 01:42:47;;;;;;;10.80;8.73;;;15.70;99.90;;;;;;5027934;28;20189;-88
2022/10/30 01:45:35;;;;;;;9.13;7.85;;;15.70;99.90;;;;;;5034431;28;20274;-88
2022/10/30 01:48:20;;;;;;;9.65;7.30;;;15.70;99.90;;;;;;5042545;28;20231;-88
2022/10/30 01:50:55;;;;;;;10.35;8.30;;;15.80;99.90;;;;;;5038346;28;20207;-88
2022/10/30 01:53:41;;;;;;;8.55;7.30;;;15.80;99.90;;;;;;5038581;28;20215;-88
2022/10/30 01:56:35;;;;;;;8.40;7.53;;;15.80;99.90;;;;;;5036523;28;20176;-88
2022/10/30 01:59:33;;;;;;;11.70;7.85;;;15.80;99.90;;;;;;5033119;28;20216;-88
2022/10/30 02:01:58;;;;;;;10.40;7.45;;;15.80;99.90;;;;;;5037898;28;20181;-89
2022/10/30 02:04:25;;;;;;;9.60;7.32;;;15.70;99.90;;;;;;5032906;28;20192;-88
2022/10/30 02:06:51;;;;;;;11.27;8.55;;;15.60;99.90;;;;;;5031448;28;20185;-89
2022/10/30 02:09:16;;;;;;;11.93;7.47;;;15.70;99.90;;;;;;5029569;28;20218;-88
2022/10/30 02:11:44;;;;;;;13.55;7.90;;;15.60;99.90;;;;;;5033937;28;20231;-88
2022/10/30 02:14:11;;;;;;;11.52;7.93;;;15.60;99.90;;;;;;5029536;28;20184;-88
2022/10/30 02:16:43;;;;;;;13.82;7.43;;;15.60;99.90;;;;;;5025575;28;20183;-88
2022/10/30 02:19:09;;;;;;;13.73;7.90;;;15.60;99.90;;;;;;5034476;28;20215;-88
2022/10/30 02:21:35;;;;;;;8.68;7.50;;;15.50;99.90;;;;;;5027126;28;20700;-88
2022/10/30 02:24:00;;;;;;;12.35;9.05;;;15.50;99.90;;;;;;5032525;28;20562;-88
2022/10/30 02:26:26;;;;;;;11.40;10.30;;;15.50;99.90;;;;;;5029403;28;20184;-87
2022/10/30 02:28:52;;;;;;;10.90;8.90;;;15.50;99.90;;;;;;5028846;28;20690;-88
2022/10/30 02:31:18;;;;;;;10.15;9.15;;;15.50;99.90;;;;;;5033790;28;20198;-88
2022/10/30 02:33:47;;;;;;;9.45;8.20;;;15.50;99.90;;;;;;5043694;28;20195;-88
2022/10/30 02:36:16;;;;;;;8.93;8.00;;;15.40;99.90;;;;;;5038283;28;20196;-87
2022/10/30 02:38:42;;;;;;;10.00;7.67;;;15.40;99.90;;;;;;5034577;28;20231;-88
2022/10/30 02:41:09;;;;;;;10.37;7.37;;;15.20;99.90;;;;;;5033747;28;20737;-88
2022/10/30 02:43:35;;;;;;;10.47;7.50;;;15.30;99.90;;;;;;5039655;28;20194;-88
2022/10/30 02:46:01;;;;;;;7.83;7.07;;;15.20;99.90;;;;;;5037414;28;20188;-87
2022/10/30 02:48:28;;;;;;;8.27;6.47;;;15.20;99.90;;;;;;5038564;28;20280;-88
2022/10/30 02:50:58;;;;;;;9.20;7.57;;;15.10;99.90;;;;;;5039799;28;20735;-88
2022/10/30 02:53:24;;;;;;;8.17;7.33;;;15.20;99.90;;;;;;5039220;28;20272;-88
2022/10/30 02:55:50;;;;;;;10.33;7.83;;;15.10;99.90;;;;;;5030474;28;20203;-88
2022/10/30 02:58:15;;;;;;;10.40;7.70;;;15.10;99.90;;;;;;5039610;28;20242;-88
2022/10/30 03:00:41;;;;;;;9.33;7.43;;;15.00;99.90;;;;;;5032847;28;20242;-88
2022/10/30 03:03:07;;;;;;;8.60;6.60;;;15.00;99.90;;;;;;5042754;28;20184;-87
2022/10/30 03:05:32;;;;;;;13.27;7.80;;;15.00;99.90;;;;;;5053807;28;20215;-88
2022/10/30 03:07:58;;;;;;;8.23;6.80;;;15.00;99.90;;;;;;5044650;28;20190;-88
2022/10/30 03:10:24;;;;;;;8.47;7.10;;;15.00;99.90;;;;;;5035430;28;20207;-88
2022/10/30 03:12:49;;;;;;;8.27;7.20;;;15.00;99.90;;;;;;5039276;28;20286;-88
2022/10/30 03:15:15;;;;;;;7.23;6.53;;;15.00;99.90;;;;;;5033425;28;20210;-88
2022/10/30 03:17:44;;;;;;;9.77;7.00;;;15.00;99.90;;;;;;5031273;28;20225;-88
2022/10/30 03:20:10;;;;;;;10.37;7.53;;;14.90;99.90;;;;;;5035603;28;20209;-89
2022/10/30 03:22:36;;;;;;;8.57;7.77;;;14.90;99.90;;;;;;5040277;28;20190;-87
2022/10/30 03:25:02;;;;;;;10.90;7.83;;;14.80;99.90;;;;;;5039226;28;20216;-88
2022/10/30 03:27:28;;;;;;;11.67;7.77;;;14.80;99.90;;;;;;5032129;28;20681;-88
2022/10/30 03:29:54;;;;;;;8.57;7.67;;;14.80;99.90;;;;;;5034431;28;20223;-88
2022/10/30 03:32:19;;;;;;;9.87;7.30;;;14.80;99.90;;;;;;5039705;28;20211;-88
2022/10/30 03:34:45;;;;;;;7.70;7.00;;;14.90;99.90;;;;;;5034151;28;20211;-88
2022/10/30 03:37:11;;;;;;;9.73;7.70;;;14.80;99.90;;;;;;5040704;28;20198;-88
2022/10/30 03:39:36;;;;;;;10.57;7.33;;;14.90;99.90;;;;;;5042775;28;20313;-88
2022/10/30 03:42:02;;;;;;;8.17;7.37;;;14.80;99.90;;;;;;5043232;28;20800;-88
2022/10/30 03:44:28;;;;;;;7.77;6.97;;;14.90;99.90;;;;;;5046679;28;20215;-88
2022/10/30 03:46:53;;;;;;;9.87;7.20;;;14.70;99.90;;;;;;5039169;28;20195;-88
2022/10/30 03:49:19;;;;;;;9.50;6.83;;;14.80;99.90;;;;;;5025508;28;20228;-88
2022/10/30 03:51:45;;;;;;;11.00;7.13;;;14.70;99.90;;;;;;5036674;28;20220;-88
2022/10/30 03:54:10;;;;;;;10.50;7.33;;;14.70;99.90;;;;;;5040830;28;20280;-87
2022/10/30 03:56:36;;;;;;;9.23;6.27;;;14.70;99.90;;;;;;5042382;28;20193;-88
2022/10/30 03:59:01;;;;;;;8.07;6.90;;;14.80;99.90;;;;;;5033924;28;20291;-88
2022/10/30 04:01:27;;;;;;;7.90;6.70;;;14.80;99.90;;;;;;5036793;28;20215;-88
2022/10/30 04:03:53;;;;;;;7.30;6.60;;;14.70;99.90;;;;;;5038851;28;20709;-87
2022/10/30 04:06:19;;;;;;;7.00;6.30;;;14.70;99.90;;;;;;5000577;28;20198;-88
2022/10/30 04:08:44;;;;;;;7.17;6.07;;;14.70;99.90;;;;;;5036412;28;20274;-88
2022/10/30 04:11:10;;;;;;;7.13;6.43;;;14.70;99.90;;;;;;5029802;28;20205;-88
2022/10/30 04:13:36;;;;;;;10.20;6.90;;;14.70;99.90;;;;;;5035879;28;20210;-88
2022/10/30 04:16:02;;;;;;;7.50;6.63;;;14.70;99.90;;;;;;5037864;28;20193;-88
2022/10/30 04:18:27;;;;;;;9.20;6.90;;;14.70;99.90;;;;;;5035494;28;20213;-88
2022/10/30 04:20:53;;;;;;;10.70;6.37;;;14.60;99.90;;;;;;5038651;28;20238;-88
2022/10/30 04:23:20;;;;;;;8.33;6.50;;;14.60;99.90;;;;;;5039244;28;20197;-88
2022/10/30 04:25:46;;;;;;;10.30;6.33;;;14.50;99.90;;;;;;5039041;28;20207;-88
2022/10/30 04:28:13;;;;;;;7.60;6.07;;;14.50;99.90;;;;;;5045555;28;20200;-88
2022/10/30 04:30:39;;;;;;;10.80;7.10;;;14.40;99.90;;;;;;5037855;28;20215;-88
2022/10/30 04:33:08;;;;;;;7.80;6.80;;;14.40;99.90;;;;;;5025559;28;20208;-88
2022/10/30 04:35:38;;;;;;;7.00;6.03;;;14.40;99.90;;;;;;5030943;28;20199;-87
2022/10/30 04:38:09;;;;;;;9.03;6.13;;;14.40;99.90;;;;;;5034929;28;20311;-88
2022/10/30 04:40:40;;;;;;;8.17;6.33;;;14.40;99.90;;;;;;5032140;28;20226;-88
2022/10/30 04:43:06;;;;;;;8.33;6.17;;;14.30;99.90;;;;;;5036400;28;20195;-88
2022/10/30 04:45:32;;;;;;;7.07;5.60;;;14.30;99.90;;;;;;5025564;28;20212;-88
2022/10/30 04:48:26;;;;;;;8.07;5.97;;;14.30;99.90;;;;;;5033558;28;20193;-88
2022/10/30 04:50:51;;;;;;;9.67;6.63;;;14.40;99.90;;;;;;5033778;28;20203;-88
2022/10/30 04:53:18;;;;;;;10.70;5.77;;;14.30;99.90;;;;;;5035228;28;20239;-88
2022/10/30 04:55:44;;;;;;;6.63;5.93;;;14.30;99.90;;;;;;5034256;28;20193;-88
2022/10/30 04:58:11;;;;;;;7.67;5.90;;;14.30;99.90;;;;;;5031637;28;20255;-88
2022/10/30 05:00:37;;;;;;;8.10;6.03;;;14.20;99.90;;;;;;5040230;28;20219;-88
2022/10/30 05:03:03;;;;;;;8.53;6.00;;;14.20;99.90;;;;;;5032281;28;20185;-88
2022/10/30 05:05:30;;;;;;;7.03;6.03;;;14.30;99.90;;;;;;5039404;28;20198;-88
2022/10/30 05:07:56;;;;;;;7.07;5.90;;;14.20;98.90;;;;;;5039850;28;20197;-87
2022/10/30 05:10:22;;;;;;;6.27;5.57;;;14.20;99.90;;;;;;5033958;28;20664;-88
2022/10/30 05:12:50;;;;;;;6.87;6.13;;;14.10;99.90;;;;;;5039857;28;20189;-88
2022/10/30 05:15:15;;;;;;;7.00;5.67;;;14.20;99.90;;;;;;5035795;28;20199;-88
2022/10/30 05:17:41;;;;;;;6.87;5.90;;;14.20;99.70;;;;;;5038468;28;20559;-88
2022/10/30 05:20:07;;;;;;;6.23;5.63;;;14.20;99.70;;;;;;5037497;28;20231;-88
2022/10/30 05:22:33;;;;;;;7.97;5.67;;;14.20;99.90;;;;;;5043199;28;20180;-88
2022/10/30 05:24:58;;;;;;;10.90;6.20;;;14.20;99.80;;;;;;5035901;28;20211;-88
2022/10/30 05:27:24;;;;;;;9.77;6.10;;;14.10;99.80;;;;;;5027652;28;20209;-88
2022/10/30 05:29:50;;;;;;;8.90;6.87;;;14.10;99.90;;;;;;5031466;28;20213;-88
2022/10/30 05:32:15;;;;;;;8.13;5.63;;;14.00;99.50;;;;;;5028995;28;20200;-87
2022/10/30 05:34:41;;;;;;;8.50;5.90;;;14.00;99.90;;;;;;5039301;28;20208;-88
2022/10/30 05:37:07;;;;;;;6.00;5.40;;;14.00;99.90;;;;;;5027624;28;20203;-88
2022/10/30 05:39:32;;;;;;;9.60;6.10;;;14.00;99.80;;;;;;5030545;28;20315;-88
2022/10/30 05:41:58;;;;;;;11.00;9.73;;;13.90;99.60;;;;;;5030266;28;20195;-88
2022/10/30 05:44:23;;;;;;;10.00;8.97;;;13.90;99.50;;;;;;5035331;28;20204;-88
2022/10/30 05:46:49;;;;;;;11.03;6.40;;;13.80;99.90;;;;;;5035575;28;20226;-88
2022/10/30 05:49:16;;;;;;;12.43;11.23;;;13.80;99.60;;;;;;5037788;28;20214;-88
2022/10/30 05:51:42;;;;;;;17.60;15.83;;;13.70;99.40;;;;;;5040494;28;20659;-90
2022/10/30 05:54:08;;;;;;;15.10;13.50;;;13.60;99.70;;;;;;5043296;28;20199;-88
2022/10/30 05:56:34;;;;;;;38.47;34.37;;;13.70;99.90;;;;;;5023208;28;20181;-88
2022/10/30 05:59:00;;;;;;;22.03;19.83;;;13.60;99.90;;;;;;5041242;28;20220;-87
2022/10/30 06:01:25;;;;;;;18.83;15.67;;;13.70;99.90;;;;;;5039313;28;20636;-88
2022/10/30 06:03:51;;;;;;;17.60;15.70;;;13.70;99.60;;;;;;5045008;28;20234;-88
2022/10/30 06:06:16;;;;;;;17.73;15.90;;;13.70;99.90;;;;;;5044404;28;20192;-88
2022/10/30 06:08:42;;;;;;;12.90;11.67;;;13.70;99.90;;;;;;5041121;28;20225;-87
2022/10/30 06:11:08;;;;;;;15.33;13.63;;;13.70;99.00;;;;;;5039467;28;20181;-87
2022/10/30 06:13:34;;;;;;;17.97;13.73;;;13.70;99.20;;;;;;5041223;28;20229;-87
2022/10/30 06:15:59;;;;;;;15.80;12.30;;;13.60;99.50;;;;;;5038789;28;20281;-88
2022/10/30 06:18:25;;;;;;;12.70;11.60;;;13.60;99.90;;;;;;5046483;28;20239;-89
2022/10/30 06:20:53;;;;;;;12.93;7.63;;;13.60;98.50;;;;;;5039418;28;20760;-88
2022/10/30 06:23:18;;;;;;;18.33;12.77;;;13.50;98.70;;;;;;5039641;28;20200;-87
2022/10/30 06:25:44;;;;;;;13.53;11.07;;;13.50;99.90;;;;;;5039827;28;20194;-87
2022/10/30 06:28:12;;;;;;;10.77;8.67;;;13.50;99.90;;;;;;5040959;28;20702;-88
2022/10/30 06:30:38;;;;;;;9.83;8.80;;;13.50;99.90;;;;;;5039621;28;20206;-88
2022/10/30 06:33:04;;;;;;;9.70;7.13;;;13.60;99.90;;;;;;5042913;28;20193;-89
2022/10/30 06:35:30;;;;;;;10.47;8.57;;;13.60;99.70;;;;;;5044143;28;20196;-87
2022/10/30 06:38:00;;;;;;;11.90;9.00;;;13.40;99.50;;;;;;5051391;28;20219;-90
2022/10/30 06:40:26;;;;;;;11.63;7.80;;;13.30;99.90;;;;;;5057703;28;20228;-91
2022/10/30 06:42:53;;;;;;;9.83;8.20;;;13.30;99.90;;;;;;5057974;28;20203;-88
2022/10/30 06:45:20;;;;;;;7.57;6.93;;;13.50;99.90;;;;;;5047578;28;20196;-87
2022/10/30 06:47:46;;;;;;;8.00;6.40;;;13.50;99.90;;;;;;5023708;28;20249;-89
2022/10/30 06:50:15;;;;;;;10.80;7.67;;;13.50;99.10;;;;;;5031574;28;20810;-88
2022/10/30 06:52:41;;;;;;;9.77;7.60;;;13.60;99.90;;;;;;5042983;28;20188;-88
2022/10/30 06:55:08;;;;;;;11.23;7.97;;;13.60;99.90;;;;;;5061851;28;20718;-87
2022/10/30 06:57:33;;;;;;;10.27;7.80;;;13.60;99.90;;;;;;5024266;28;20184;-88
2022/10/30 06:59:59;;;;;;;10.43;7.57;;;13.60;99.90;;;;;;5042397;28;20254;-87
2022/10/30 07:02:25;;;;;;;8.80;6.73;;;13.60;99.90;;;;;;5043090;28;20249;-88
2022/10/30 07:04:50;;;;;;;8.27;7.03;;;13.70;99.90;;;;;;5041876;28;20210;-88
2022/10/30 07:07:16;;;;;;;7.83;7.03;;;13.70;99.30;;;;;;5042943;28;20413;-88
2022/10/30 07:09:42;;;;;;;7.47;6.77;;;13.70;99.90;;;;;;5040440;28;20288;-87
2022/10/30 07:12:08;;;;;;;8.80;7.87;;;13.70;99.90;;;;;;5037225;28;20191;-88
2022/10/30 07:14:34;;;;;;;7.73;6.77;;;13.80;99.90;;;;;;5043906;28;20699;-88
2022/10/30 07:17:00;;;;;;;7.47;6.53;;;13.80;99.90;;;;;;5042442;28;20210;-88
2022/10/30 07:19:26;;;;;;;10.67;6.63;;;13.90;99.90;;;;;;5052290;28;20286;-88
2022/10/30 07:21:52;;;;;;;11.47;7.17;;;13.80;99.90;;;;;;5043724;28;20661;-89
2022/10/30 07:24:18;;;;;;;7.83;6.80;;;13.60;99.90;;;;;;5042286;28;20191;-89
2022/10/30 07:26:43;;;;;;;8.40;6.70;;;13.60;99.90;;;;;;5043538;28;20264;-88
2022/10/30 07:29:09;;;;;;;12.57;7.37;;;13.80;99.90;;;;;;5042900;28;20215;-89
2022/10/30 07:31:35;;;;;;;10.27;9.27;;;13.80;99.90;;;;;;5041302;28;20195;-88
2022/10/30 07:34:00;;;;;;;8.60;7.70;;;13.80;99.90;;;;;;5025435;28;20191;-89
2022/10/30 07:36:26;;;;;;;8.17;7.13;;;13.90;99.90;;;;;;5042515;28;20642;-89
2022/10/30 07:38:52;;;;;;;8.07;7.37;;;13.90;99.90;;;;;;5041785;28;20262;-89
2022/10/30 07:41:18;;;;;;;9.67;8.53;;;14.10;99.90;;;;;;5042465;28;20209;-89
2022/10/30 07:43:44;;;;;;;12.87;8.20;;;14.10;99.90;;;;;;5043179;28;20653;-90
2022/10/30 07:46:10;;;;;;;12.23;7.53;;;14.30;99.90;;;;;;5042106;28;20196;-90
2022/10/30 07:48:36;;;;;;;11.97;8.17;;;14.20;99.90;;;;;;5042755;28;20291;-90
2022/10/30 07:51:02;;;;;;;9.67;7.33;;;14.30;99.90;;;;;;5041500;28;20215;-90
2022/10/30 07:53:28;;;;;;;8.23;6.73;;;14.30;99.90;;;;;;5041237;28;20206;-89
2022/10/30 07:55:54;;;;;;;13.13;7.00;;;14.40;99.90;;;;;;5042645;28;20293;-90
2022/10/30 07:58:20;;;;;;;8.30;7.50;;;14.50;99.90;;;;;;5041475;28;20201;-90
2022/10/30 08:00:46;;;;;;;8.87;7.13;;;14.50;99.90;;;;;;5041928;28;20303;-89
2022/10/30 08:03:12;;;;;;;9.07;6.13;;;14.60;99.90;;;;;;5039410;28;20185;-90
2022/10/30 08:05:38;;;;;;;7.67;6.87;;;14.60;99.90;;;;;;5042501;28;20181;-89
2022/10/30 08:08:04;;;;;;;10.33;6.70;;;14.60;99.90;;;;;;5042629;28;20274;-89
2022/10/30 08:10:30;;;;;;;9.67;6.40;;;14.70;99.90;;;;;;5041443;28;20180;-89
2022/10/30 08:12:56;;;;;;;11.60;6.57;;;14.70;99.90;;;;;;5042604;28;20670;-89
2022/10/30 08:15:22;;;;;;;9.67;6.23;;;14.80;99.90;;;;;;5042910;28;20249;-89
2022/10/30 08:17:49;;;;;;;7.90;7.10;;;14.90;99.90;;;;;;5029151;28;20220;-88
2022/10/30 08:20:17;;;;;;;7.63;6.47;;;14.90;99.90;;;;;;5024786;28;20212;-90
2022/10/30 08:22:51;;;;;;;7.23;6.50;;;14.90;99.90;;;;;;5033368;28;20202;-89
2022/10/30 08:25:18;;;;;;;9.40;6.70;;;15.00;99.90;;;;;;5045936;28;20173;-90
2022/10/30 08:27:54;;;;;;;11.90;6.20;;;15.00;99.90;;;;;;5044289;28;20183;-89
2022/10/30 08:30:20;;;;;;;8.83;6.33;;;15.00;99.90;;;;;;5038819;28;20169;-88
2022/10/30 08:32:46;;;;;;;9.27;6.37;;;15.00;99.90;;;;;;5039539;28;20261;-87
2022/10/30 08:35:12;;;;;;;10.47;6.67;;;15.00;99.90;;;;;;5039902;28;20662;-88
2022/10/30 08:37:38;;;;;;;8.43;6.63;;;15.00;99.90;;;;;;5038865;28;20198;-88
2022/10/30 08:40:04;;;;;;;9.97;6.93;;;15.10;99.90;;;;;;5039240;28;20685;-87
2022/10/30 08:42:29;;;;;;;8.70;7.13;;;15.00;99.90;;;;;;5040424;28;20211;-87
2022/10/30 08:44:55;;;;;;;11.67;6.60;;;15.00;99.90;;;;;;5046908;28;20186;-87
2022/10/30 08:47:21;;;;;;;11.87;7.63;;;15.00;99.90;;;;;;5037997;28;20194;-87
2022/10/30 08:49:46;;;;;;;8.93;6.73;;;15.20;99.90;;;;;;5037930;28;20206;-87
2022/10/30 08:52:12;;;;;;;10.27;6.50;;;15.10;99.90;;;;;;5039217;28;20182;-88
2022/10/30 08:54:37;;;;;;;11.07;6.40;;;15.20;99.90;;;;;;5038750;28;20217;-87
2022/10/30 08:57:03;;;;;;;7.87;5.90;;;15.40;99.90;;;;;;5039465;28;20196;-88
2022/10/30 08:59:29;;;;;;;10.17;6.27;;;15.60;99.90;;;;;;5039517;28;20447;-87
2022/10/30 09:01:54;;;;;;;10.30;6.73;;;15.50;99.90;;;;;;5039704;28;20178;-89
2022/10/30 09:04:20;;;;;;;7.80;6.18;;;15.40;99.90;;;;;;5042065;28;20193;-87
2022/10/30 09:06:46;;;;;;;7.35;5.65;;;15.60;99.90;;;;;;5041171;28;20186;-87
2022/10/30 09:09:13;;;;;;;7.82;6.18;;;15.70;99.90;;;;;;5041380;28;20258;-87
2022/10/30 09:11:39;;;;;;;9.70;5.68;;;15.80;99.90;;;;;;5040778;28;20186;-87
2022/10/30 09:14:04;;;;;;;11.38;6.40;;;16.00;99.40;;;;;;5040804;28;20183;-88
2022/10/30 09:16:30;;;;;;;11.60;6.60;;;16.10;98.60;;;;;;5041565;28;20185;-90
2022/10/30 09:18:56;;;;;;;7.43;6.07;;;16.30;98.50;;;;;;5042047;28;20229;-86
2022/10/30 09:21:21;;;;;;;10.88;6.70;;;16.50;96.80;;;;;;5041912;28;20226;-88
2022/10/30 09:23:47;;;;;;;9.70;6.05;;;16.60;96.10;;;;;;5044192;28;20182;-87
2022/10/30 09:26:13;;;;;;;10.10;6.43;;;16.70;97.40;;;;;;5048448;28;20783;-88
2022/10/30 09:28:39;;;;;;;8.68;6.10;;;16.90;94.60;;;;;;5052788;28;20207;-88
2022/10/30 09:31:04;;;;;;;8.88;5.95;;;17.10;93.90;;;;;;5052021;28;20180;-87
2022/10/30 09:33:30;;;;;;;9.55;6.40;;;17.20;91.80;;;;;;5052521;28;20207;-88
2022/10/30 09:35:56;;;;;;;9.30;6.50;;;17.30;91.70;;;;;;5051186;28;20208;-89
2022/10/30 09:38:22;;;;;;;10.40;6.18;;;17.40;90.90;;;;;;5050959;28;20196;-88
2022/10/30 09:41:09;;;;;;;13.60;6.55;;;17.50;92.00;;;;;;5050094;28;20706;-88
2022/10/30 09:43:45;;;;;;;8.25;6.00;;;17.70;89.60;;;;;;5042528;28;20153;-87
2022/10/30 09:46:18;;;;;;;10.02;6.50;;;17.80;90.60;;;;;;5038533;28;20161;-87
2022/10/30 09:49:10;;;;;;;8.48;6.40;;;17.80;88.00;;;;;;5038554;28;20245;-88
2022/10/30 09:51:36;;;;;;;9.48;6.30;;;17.90;87.60;;;;;;5038337;28;20173;-87
2022/10/30 09:54:35;;;;;;;11.98;6.78;;;17.90;89.80;;;;;;5037583;28;20184;-87
2022/10/30 09:57:18;;;;;;;9.00;6.50;;;18.10;86.70;;;;;;5041483;28;20154;-88
2022/10/30 09:59:46;;;;;;;12.30;6.65;;;18.40;85.30;;;;;;5039580;28;20231;-89
2022/10/30 10:02:27;;;;;;;8.15;6.13;;;18.50;87.30;;;;;;5039502;28;20266;-87
2022/10/30 10:05:02;;;;;;;10.77;6.88;;;18.70;86.00;;;;;;5041084;28;20177;-88
2022/10/30 10:07:40;;;;;;;10.13;6.80;;;18.90;84.20;;;;;;5042048;28;20165;-87
2022/10/30 10:10:19;;;;;;;9.55;6.82;;;18.90;85.30;;;;;;5050762;28;20215;-89
2022/10/30 10:12:48;;;;;;;12.70;7.03;;;19.10;83.60;;;;;;5043745;28;20195;-88
2022/10/30 10:15:16;;;;;;;11.65;6.65;;;19.40;81.20;;;;;;5043244;28;20305;-88
2022/10/30 10:17:44;;;;;;;13.27;7.22;;;19.60;80.90;;;;;;5042815;28;20197;-89
2022/10/30 10:20:25;;;;;;;9.18;6.15;;;19.40;83.50;;;;;;5045638;28;20212;-89
2022/10/30 10:22:51;;;;;;;9.75;6.97;;;19.40;82.00;;;;;;5059103;28;20164;-92
2022/10/30 10:25:19;;;;;;;8.60;6.32;;;19.80;78.70;;;;;;5059084;28;20300;-92
2022/10/30 10:27:53;;;;;;;7.45;6.75;;;20.10;78.60;;;;;;5045064;28;20670;-89
2022/10/30 10:30:21;;;;;;;7.63;6.28;;;20.40;77.50;;;;;;5040026;28;20200;-89
2022/10/30 10:33:05;;;;;;;12.63;6.45;;;20.70;76.60;;;;;;5039875;28;20236;-90
2022/10/30 10:35:53;;;;;;;15.60;7.07;;;20.90;75.50;;;;;;5039690;28;20180;-90
2022/10/30 10:38:42;;;;;;;10.68;5.97;;;21.00;73.00;;;;;;5039001;28;20216;-89
2022/10/30 10:41:53;;;;;;;11.20;7.53;;;21.20;73.70;;;;;;5037760;28;20276;-89
2022/10/30 10:44:37;;;;;;;10.10;6.85;;;21.00;74.00;;;;;;5038449;28;20570;-89
2022/10/30 10:47:23;;;;;;;9.85;6.97;;;20.90;75.90;;;;;;5036245;28;20195;-89
2022/10/30 10:50:14;;;;;;;12.00;6.65;;;20.70;76.50;;;;;;5031985;28;20221;-89
2022/10/30 10:53:02;;;;;;;15.00;8.40;;;21.30;73.60;;;;;;5039149;28;20295;-87
2022/10/30 10:55:32;;;;;;;10.07;7.55;;;21.70;72.60;;;;;;5041878;28;20185;-87
2022/10/30 10:58:24;;;;;;;7.05;6.35;;;21.90;70.10;;;;;;5041968;28;20180;-89
2022/10/30 11:00:51;;;;;;;8.65;6.78;;;21.80;73.20;;;;;;5043067;28;20265;-87
2022/10/30 11:03:21;;;;;;;9.60;6.35;;;21.80;71.90;;;;;;5042498;28;20185;-88
2022/10/30 11:05:50;;;;;;;8.07;6.97;;;21.90;71.20;;;;;;5055261;28;20245;-90
2022/10/30 11:08:21;;;;;;;10.10;7.35;;;21.90;71.90;;;;;;5030583;28;20232;-87
2022/10/30 11:10:55;;;;;;;11.77;7.10;;;22.30;69.00;;;;;;5039192;28;20224;-87
2022/10/30 11:13:25;;;;;;;9.27;6.78;;;22.30;70.30;;;;;;5032408;28;20184;-86
2022/10/30 11:16:00;;;;;;;9.57;7.25;;;22.10;71.40;;;;;;5042573;28;20555;-85
2022/10/30 11:18:26;;;;;;;10.05;7.20;;;22.00;72.50;;;;;;5041216;28;20192;-87
2022/10/30 11:21:13;;;;;;;12.60;7.40;;;21.90;73.50;;;;;;5042066;28;20234;-87
2022/10/30 11:23:47;;;;;;;7.45;6.72;;;21.80;73.30;;;;;;5042380;28;20196;-88
2022/10/30 11:26:19;;;;;;;8.73;7.10;;;21.80;74.90;;;;;;5041778;28;20180;-86
2022/10/30 11:28:49;;;;;;;9.23;7.22;;;21.90;73.20;;;;;;5043202;28;20193;-88
2022/10/30 11:31:20;;;;;;;12.98;7.50;;;21.80;74.30;;;;;;5042028;28;20192;-86
2022/10/30 11:33:46;;;;;;;10.20;7.50;;;22.00;74.00;;;;;;5047596;28;20192;-85
2022/10/30 11:36:22;;;;;;;9.95;7.50;;;22.30;72.00;;;;;;5041996;28;20530;-88
2022/10/30 11:38:48;;;;;;;11.60;7.38;;;22.40;71.10;;;;;;5035363;28;20220;-86
2022/10/30 11:41:15;;;;;;;17.00;7.32;;;22.70;69.40;;;;;;5031864;28;20243;-84
2022/10/30 11:43:42;;;;;;;11.90;7.07;;;22.80;68.10;;;;;;5037474;28;20212;-86
2022/10/30 11:46:14;;;;;;;9.05;7.80;;;22.80;69.70;;;;;;5038072;28;20189;-84
2022/10/30 11:48:43;;;;;;;13.00;7.65;;;22.60;68.80;;;;;;5040638;28;20240;-85
2022/10/30 11:51:10;;;;;;;10.52;7.10;;;23.00;67.80;;;;;;5032591;28;20221;-88
2022/10/30 11:53:46;;;;;;;8.98;7.25;;;23.10;68.00;;;;;;5038934;28;20281;-87
2022/10/30 11:56:19;;;;;;;8.70;7.03;;;22.90;68.70;;;;;;5032782;28;20189;-87
2022/10/30 11:58:49;;;;;;;9.68;6.68;;;22.90;69.50;;;;;;5032143;28;20221;-86
2022/10/30 12:01:15;;;;;;;8.50;7.05;;;23.30;67.40;;;;;;5035612;28;20285;-85
2022/10/30 12:03:41;;;;;;;7.78;6.82;;;23.40;65.60;;;;;;5041016;28;20212;-84
2022/10/30 12:06:22;;;;;;;9.20;6.30;;;23.70;65.30;;;;;;5036450;28;20209;-86
2022/10/30 12:09:11;;;;;;;9.52;7.00;;;23.50;65.70;;;;;;5039553;28;20240;-87
2022/10/30 12:11:43;;;;;;;12.50;7.05;;;23.90;63.30;;;;;;5035626;28;20676;-88
2022/10/30 12:14:20;;;;;;;8.55;7.07;;;23.60;64.50;;;;;;5037487;28;20256;-87
2022/10/30 12:16:56;;;;;;;9.98;6.88;;;23.60;65.20;;;;;;5034123;28;20201;-86
2022/10/30 12:19:24;;;;;;;8.00;6.82;;;23.90;64.50;;;;;;5027578;28;20219;-87
2022/10/30 12:21:52;;;;;;;10.98;7.15;;;24.30;61.70;;;;;;5037047;28;20294;-88
2022/10/30 12:24:20;;;;;;;9.65;7.45;;;25.20;58.50;;;;;;5033558;28;20256;-87
2022/10/30 12:26:49;;;;;;;8.63;6.88;;;25.30;57.50;;;;;;5035988;28;20200;-87
2022/10/30 12:29:19;;;;;;;8.65;6.97;;;25.00;59.00;;;;;;5038989;28;20255;-87
2022/10/30 12:31:55;;;;;;;9.45;7.30;;;25.00;59.20;;;;;;5038831;28;20177;-90
2022/10/30 12:34:51;;;;;;;7.38;6.68;;;25.10;57.70;;;;;;5053156;28;20204;-87
2022/10/30 12:37:25;;;;;;;8.32;6.68;;;24.60;58.90;;;;;;5040270;28;20260;-89
2022/10/30 12:40:16;;;;;;;42.08;29.63;;;25.10;56.80;;;;;;5042079;28;20221;-85
2022/10/30 12:42:56;;;;;;;12.27;7.15;;;25.40;57.50;;;;;;5032638;28;20247;-90
2022/10/30 12:45:42;;;;;;;9.20;6.90;;;25.60;53.40;;;;;;5041417;28;20184;-89
2022/10/30 12:48:25;;;;;;;10.18;6.70;;;25.60;53.10;;;;;;5025068;28;20208;-90
2022/10/30 12:51:15;;;;;;;8.85;6.22;;;25.90;52.50;;;;;;5048244;28;20191;-90
2022/10/30 12:53:59;;;;;;;7.88;7.07;;;25.90;53.10;;;;;;5045949;28;20240;-89
2022/10/30 12:56:41;;;;;;;9.52;6.53;;;25.30;56.10;;;;;;5043894;28;20181;-89